createdAt,value
2022-12-13T00:01:53.067Z,18.95
2022-12-13T00:04:22.585Z,18.08
2022-12-13T00:06:51.385Z,19.27
2022-12-13T00:09:20.469Z,17.90
2022-12-13T00:11:49.200Z,17.83
2022-12-13T00:14:17.108Z,19.77
2022-12-13T00:16:49.703Z,18.15
2022-12-13T00:19:18.956Z,19.23
2022-12-13T00:21:46.498Z,19.25
2022-12-13T00:24:14.651Z,18.33
2022-12-13T00:26:42.198Z,20.13
2022-12-13T00:29:10.296Z,21.42
2022-12-13T00:32:00.020Z,21.42
2022-12-13T00:34:26.147Z,18.73
2022-12-13T00:36:59.158Z,19.13
2022-12-13T00:39:27.326Z,18.23
2022-12-13T00:41:54.848Z,20.42
2022-12-13T00:44:22.458Z,19.48
2022-12-13T00:46:51.748Z,21.05
2022-12-13T00:49:19.564Z,19.55
2022-12-13T00:51:48.228Z,20.67
2022-12-13T00:54:16.018Z,18.92
2022-12-13T00:56:43.631Z,18.48
2022-12-13T00:59:15.574Z,21.40
2022-12-13T01:01:43.163Z,16.10
2022-12-13T01:04:11.567Z,19.20
2022-12-13T01:06:49.667Z,19.40
2022-12-13T01:09:21.273Z,19.90
2022-12-13T01:11:49.813Z,20.73
2022-12-13T01:14:18.734Z,19.73
2022-12-13T01:16:46.336Z,20.40
2022-12-13T01:19:13.951Z,23.63
2022-12-13T01:21:41.464Z,21.27
2022-12-13T01:24:09.182Z,21.17
2022-12-13T01:26:36.723Z,18.30
2022-12-13T01:29:05.640Z,20.45
2022-12-13T01:31:34.053Z,20.02
2022-12-13T01:34:10.201Z,19.75
2022-12-13T01:36:38.554Z,16.70
2022-12-13T01:39:14.370Z,18.85
2022-12-13T01:41:44.656Z,19.10
2022-12-13T01:44:49.693Z,18.20
2022-12-13T01:47:20.904Z,19.42
2022-12-13T01:49:48.784Z,18.15
2022-12-13T01:52:17.418Z,20.85
2022-12-13T01:54:49.022Z,17.52
2022-12-13T01:57:19.529Z,20.05
2022-12-13T01:59:48.231Z,19.75
2022-12-13T02:02:16.228Z,17.90
2022-12-13T02:04:54.492Z,18.67
2022-12-13T02:07:27.554Z,17.80
2022-12-13T02:09:58.585Z,19.27
2022-12-13T02:12:30.369Z,16.98
2022-12-13T02:15:01.816Z,18.27
2022-12-13T02:17:53.937Z,20.27
2022-12-13T02:20:53.747Z,20.35
2022-12-13T02:23:33.433Z,18.70
2022-12-13T02:26:45.315Z,20.92
2022-12-13T02:29:34.101Z,16.88
2022-12-13T02:32:32.317Z,18.88
2022-12-13T02:35:12.349Z,19.52
2022-12-13T02:37:58.652Z,19.90
2022-12-13T02:40:47.811Z,18.95
2022-12-13T02:43:36.485Z,18.00
2022-12-13T02:46:16.296Z,17.77
2022-12-13T02:48:44.847Z,19.88
2022-12-13T02:51:13.689Z,23.15
2022-12-13T02:53:42.453Z,21.20
2022-12-13T02:56:09.981Z,22.30
2022-12-13T02:58:44.357Z,21.30
2022-12-13T03:01:43.700Z,21.58
2022-12-13T03:04:22.185Z,21.55
2022-12-13T03:06:54.396Z,22.05
2022-12-13T03:09:40.392Z,20.70
2022-12-13T03:12:49.448Z,19.67
2022-12-13T03:15:23.359Z,19.05
2022-12-13T03:17:55.161Z,18.83
2022-12-13T03:20:26.203Z,22.52
2022-12-13T03:22:55.274Z,20.17
2022-12-13T03:25:31.306Z,20.02
2022-12-13T03:28:01.243Z,22.70
2022-12-13T03:30:30.999Z,19.13
2022-12-13T03:32:58.476Z,21.17
2022-12-13T03:35:34.819Z,21.35
2022-12-13T03:38:13.409Z,21.17
2022-12-13T03:40:52.168Z,21.10
2022-12-13T03:43:21.633Z,20.20
2022-12-13T03:45:50.141Z,21.25
2022-12-13T03:48:22.801Z,20.88
2022-12-13T03:50:51.497Z,19.95
2022-12-13T03:53:22.617Z,18.67
2022-12-13T03:55:51.003Z,20.50
2022-12-13T03:58:18.936Z,21.52
2022-12-13T04:00:46.875Z,21.23
2022-12-13T04:03:14.801Z,19.77
2022-12-13T04:05:42.484Z,20.73
2022-12-13T04:08:21.809Z,24.35
2022-12-13T04:10:50.033Z,21.48
2022-12-13T04:13:35.138Z,23.77
2022-12-13T04:16:03.697Z,24.33
2022-12-13T04:18:31.508Z,27.33
2022-12-13T04:20:59.089Z,22.52
2022-12-13T04:23:26.618Z,24.77
2022-12-13T04:25:54.279Z,22.70
2022-12-13T04:28:22.930Z,24.73
2022-12-13T04:30:53.356Z,23.92
2022-12-13T04:33:22.982Z,23.05
2022-12-13T04:35:51.453Z,24.00
2022-12-13T04:38:19.741Z,21.85
2022-12-13T04:40:47.559Z,24.27
2022-12-13T04:43:15.063Z,26.23
2022-12-13T04:45:42.754Z,22.52
2022-12-13T04:48:10.502Z,23.77
2022-12-13T04:50:38.109Z,24.08
2022-12-13T04:53:05.578Z,23.35
2022-12-13T04:55:33.053Z,24.77
2022-12-13T04:58:00.518Z,22.25
2022-12-13T05:00:28.074Z,23.15
2022-12-13T05:02:55.680Z,22.63
2022-12-13T05:05:23.397Z,22.88
2022-12-13T05:07:50.930Z,21.65
2022-12-13T05:10:36.132Z,22.60
2022-12-13T05:13:05.378Z,23.73
2022-12-13T05:15:33.572Z,23.25
2022-12-13T05:18:09.822Z,26.45
2022-12-13T05:20:39.699Z,24.30
2022-12-13T05:23:07.384Z,23.95
2022-12-13T05:25:36.942Z,23.90
2022-12-13T05:28:09.078Z,22.25
2022-12-13T05:30:53.585Z,24.45
2022-12-13T05:33:21.122Z,24.00
2022-12-13T05:35:48.846Z,22.85
2022-12-13T05:38:16.443Z,25.38
2022-12-13T05:40:44.052Z,22.95
2022-12-13T05:43:21.861Z,19.80
2022-12-13T05:45:50.146Z,22.30
2022-12-13T05:48:24.521Z,23.13
2022-12-13T05:51:10.025Z,25.20
2022-12-13T05:53:39.235Z,25.75
2022-12-13T05:56:06.940Z,24.58
2022-12-13T05:58:36.136Z,25.02
2022-12-13T06:01:12.104Z,23.40
2022-12-13T06:03:40.607Z,22.05
2022-12-13T06:06:10.261Z,21.52
2022-12-13T06:08:38.534Z,22.13
2022-12-13T06:11:10.648Z,22.83
2022-12-13T06:13:42.613Z,22.02
2022-12-13T06:16:21.895Z,21.38
2022-12-13T06:19:01.015Z,21.30
2022-12-13T06:21:40.836Z,23.55
2022-12-13T06:24:11.304Z,20.35
2022-12-13T06:26:38.797Z,18.85
2022-12-13T06:29:06.309Z,22.10
2022-12-13T06:31:33.855Z,24.67
2022-12-13T06:34:15.325Z,25.42
2022-12-13T06:36:43.928Z,21.60
2022-12-13T06:39:11.555Z,22.27
2022-12-13T06:41:39.156Z,22.33
2022-12-13T06:44:06.707Z,22.83
2022-12-13T06:46:34.820Z,22.52
2022-12-13T06:49:02.412Z,22.70
2022-12-13T06:51:32.484Z,23.13
2022-12-13T06:54:01.437Z,24.33
2022-12-13T06:56:29.947Z,27.45
2022-12-13T06:59:01.656Z,22.65
2022-12-13T07:01:37.618Z,21.15
2022-12-13T07:04:28.989Z,24.27
2022-12-13T07:06:56.565Z,23.98
2022-12-13T07:09:31.460Z,23.77
2022-12-13T07:11:59.244Z,21.77
2022-12-13T07:14:26.902Z,23.25
2022-12-13T07:16:59.616Z,22.17
2022-12-13T07:19:34.922Z,23.75
2022-12-13T07:22:05.871Z,25.38
2022-12-13T07:24:33.801Z,22.20
2022-12-13T07:27:01.316Z,22.88
2022-12-13T07:29:28.878Z,21.38
2022-12-13T07:32:01.496Z,22.35
2022-12-13T07:34:30.118Z,23.33
2022-12-13T07:36:57.769Z,22.40
2022-12-13T07:39:27.034Z,22.92
2022-12-13T07:41:56.580Z,23.77
2022-12-13T07:44:25.293Z,23.98
2022-12-13T07:46:53.656Z,22.38
2022-12-13T07:49:21.312Z,24.27
2022-12-13T07:51:49.097Z,21.60
2022-12-13T07:54:16.838Z,22.65
2022-12-13T07:56:44.506Z,22.08
2022-12-13T07:59:13.617Z,23.00
2022-12-13T08:01:41.223Z,24.70
2022-12-13T08:04:09.256Z,22.60
2022-12-13T08:06:38.362Z,26.17
2022-12-13T08:09:06.822Z,23.73
2022-12-13T08:11:34.560Z,24.05
2022-12-13T08:14:02.072Z,24.92
2022-12-13T08:16:30.333Z,26.40
2022-12-13T08:19:02.697Z,24.20
2022-12-13T08:21:57.486Z,23.00
2022-12-13T08:24:30.729Z,23.02
2022-12-13T08:27:03.489Z,25.13
2022-12-13T08:29:36.251Z,24.85
2022-12-13T08:32:10.060Z,26.05
2022-12-13T08:34:37.719Z,24.20
2022-12-13T08:37:05.934Z,25.25
2022-12-13T08:39:36.287Z,27.23
2022-12-13T08:42:14.678Z,22.77
2022-12-13T08:44:44.061Z,25.05
2022-12-13T08:47:11.589Z,22.40
2022-12-13T08:49:39.247Z,23.00
2022-12-13T08:52:06.769Z,22.02
2022-12-13T08:54:35.093Z,25.13
2022-12-13T08:57:02.661Z,24.45
2022-12-13T08:59:30.281Z,24.08
2022-12-13T09:02:03.168Z,27.65
2022-12-13T09:04:32.572Z,26.55
2022-12-13T09:07:01.746Z,26.77
2022-12-13T09:09:30.143Z,27.67
2022-12-13T09:11:59.324Z,26.65
2022-12-13T09:14:33.723Z,26.70
2022-12-13T09:17:03.614Z,27.05
2022-12-13T09:19:36.764Z,27.10
2022-12-13T09:22:06.481Z,23.67
2022-12-13T09:24:42.069Z,27.10
2022-12-13T09:27:27.257Z,26.05
2022-12-13T09:29:55.773Z,26.70
2022-12-13T09:32:23.955Z,23.55
2022-12-13T09:34:51.695Z,27.02
2022-12-13T09:37:22.820Z,25.77
2022-12-13T09:39:54.937Z,26.20
2022-12-13T09:42:30.457Z,23.25
2022-12-13T09:45:22.319Z,25.67
2022-12-13T09:47:52.527Z,24.20
2022-12-13T09:50:38.542Z,25.33
2022-12-13T09:53:12.016Z,26.63
2022-12-13T09:55:55.697Z,26.30
2022-12-13T10:01:06.546Z,25.23
2022-12-13T10:03:34.672Z,24.08
2022-12-13T10:06:14.756Z,27.27
2022-12-13T10:08:59.430Z,28.63
2022-12-13T10:11:32.501Z,19.30
2022-12-13T10:14:19.246Z,25.33
2022-12-13T10:16:57.855Z,25.23
2022-12-13T10:19:37.500Z,26.30
2022-12-13T10:22:09.430Z,27.67
2022-12-13T10:24:56.633Z,24.73
2022-12-13T10:27:44.372Z,23.67
2022-12-13T10:30:27.695Z,24.40
2022-12-13T10:33:00.994Z,26.13
2022-12-13T10:35:31.241Z,25.27
2022-12-13T10:38:01.981Z,25.80
2022-12-13T10:40:36.859Z,23.98
2022-12-13T10:43:15.334Z,25.77
2022-12-13T10:45:58.965Z,26.02
2022-12-13T10:48:40.808Z,24.45
2022-12-13T10:51:13.818Z,23.50
2022-12-13T10:53:48.235Z,25.35
2022-12-13T10:56:22.808Z,21.85
2022-12-13T10:59:15.143Z,24.90
2022-12-13T11:01:44.800Z,24.52
2022-12-13T11:04:29.668Z,24.05
2022-12-13T11:07:00.088Z,23.45
2022-12-13T11:09:29.856Z,22.67
2022-12-13T11:12:19.954Z,24.42
2022-12-13T11:15:05.362Z,24.17
2022-12-13T11:17:35.913Z,21.70
2022-12-13T11:20:08.018Z,23.05
2022-12-13T11:22:38.513Z,21.88
2022-12-13T11:25:20.071Z,21.88
2022-12-13T11:28:02.671Z,21.52
2022-12-13T11:33:16.270Z,21.38
2022-12-13T11:35:47.547Z,22.67
2022-12-13T11:38:50.054Z,19.65
2022-12-13T11:41:31.420Z,21.88
2022-12-13T11:44:05.314Z,20.45
2022-12-13T11:46:47.425Z,18.45
2022-12-13T11:49:18.986Z,18.38
2022-12-13T11:51:53.151Z,18.02
2022-12-13T11:54:33.141Z,17.63
2022-12-13T11:57:08.005Z,18.95
2022-12-13T11:59:44.077Z,16.83
2022-12-13T12:02:23.394Z,18.50
2022-12-13T12:05:00.382Z,20.70
2022-12-13T12:07:38.315Z,20.40
2022-12-13T12:10:14.811Z,17.90
2022-12-13T12:12:48.314Z,19.08
2022-12-13T12:15:26.698Z,19.23
2022-12-13T12:17:56.336Z,17.08
2022-12-13T12:20:48.052Z,19.02
2022-12-13T12:23:31.835Z,18.30
2022-12-13T12:26:12.757Z,18.52
2022-12-13T12:28:50.596Z,19.45
2022-12-13T12:31:27.255Z,18.92
2022-12-13T12:34:13.331Z,17.42
2022-12-13T12:37:02.686Z,16.75
2022-12-13T12:40:17.332Z,17.58
2022-12-13T12:43:27.045Z,15.65
2022-12-13T12:46:22.695Z,20.48
2022-12-13T12:49:01.113Z,18.30
2022-12-13T12:51:57.254Z,20.92
2022-12-13T12:54:48.930Z,19.67
2022-12-13T12:57:27.273Z,16.90
2022-12-13T13:00:02.158Z,18.33
2022-12-13T13:02:48.779Z,19.85
2022-12-13T13:05:37.091Z,17.95
2022-12-13T13:08:20.106Z,20.77
2022-12-13T13:10:49.822Z,15.10
2022-12-13T13:13:50.515Z,19.38
2022-12-13T13:16:36.572Z,17.00
2022-12-13T13:19:32.596Z,17.15
2022-12-13T13:22:02.611Z,18.17
2022-12-13T13:24:33.141Z,18.10
2022-12-13T13:27:20.552Z,18.20
2022-12-13T13:29:48.292Z,16.55
2022-12-13T13:32:29.720Z,19.30
2022-12-13T13:35:29.692Z,18.80
2022-12-13T13:37:58.378Z,17.02
2022-12-13T13:40:37.783Z,17.05
2022-12-13T13:43:05.319Z,18.15
2022-12-13T13:45:54.912Z,17.92
2022-12-13T13:48:54.218Z,19.08
2022-12-13T13:52:16.813Z,17.45
2022-12-13T13:54:49.638Z,18.60
2022-12-13T13:58:10.841Z,19.17
2022-12-13T14:01:16.724Z,18.70
2022-12-13T14:04:05.916Z,18.60
2022-12-13T14:07:01.684Z,19.98
2022-12-13T14:09:48.136Z,19.02
2022-12-13T14:12:30.763Z,18.60
2022-12-13T14:18:05.966Z,21.17
2022-12-13T14:21:07.571Z,17.20
2022-12-13T14:23:56.890Z,18.77
2022-12-13T14:26:39.306Z,21.83
2022-12-13T14:29:17.268Z,18.40
2022-12-13T14:31:49.560Z,18.33
2022-12-13T14:34:22.836Z,15.25
2022-12-13T14:37:04.670Z,17.65
2022-12-13T14:39:34.606Z,20.40
2022-12-13T14:42:04.364Z,19.60
2022-12-13T14:44:35.195Z,20.83
2022-12-13T14:47:08.504Z,23.38
2022-12-13T14:49:41.678Z,23.77
2022-12-13T14:52:27.679Z,23.02
2022-12-13T14:55:00.694Z,23.25
2022-12-13T14:57:34.842Z,26.00
2022-12-13T15:00:23.021Z,20.90
2022-12-13T15:02:52.628Z,23.50
2022-12-13T15:05:35.319Z,23.35
2022-12-13T15:10:48.334Z,20.67
2022-12-13T15:13:44.133Z,20.77
2022-12-13T15:16:25.644Z,23.17
2022-12-13T15:19:10.873Z,22.08
2022-12-13T15:21:38.849Z,22.02
2022-12-13T15:24:07.369Z,22.20
2022-12-13T15:26:35.405Z,24.27
2022-12-13T15:29:10.201Z,24.13
2022-12-13T15:31:40.313Z,24.13
2022-12-13T15:34:31.038Z,25.45
2022-12-13T15:37:29.170Z,21.08
2022-12-13T15:40:01.704Z,19.55
2022-12-13T15:42:36.112Z,25.73
2022-12-13T15:45:18.330Z,21.67
2022-12-13T15:47:48.104Z,23.25
2022-12-13T15:50:32.990Z,10.48
2022-12-13T15:53:05.078Z,17.45
2022-12-13T15:55:37.317Z,22.33
2022-12-13T15:58:05.058Z,25.10
2022-12-13T16:00:36.549Z,22.00
2022-12-13T16:03:09.955Z,23.43
2022-12-13T16:05:43.073Z,23.42
2022-12-13T16:08:35.603Z,24.42
2022-12-13T16:11:03.622Z,24.13
2022-12-13T16:13:36.795Z,22.05
2022-12-13T16:16:10.545Z,23.33
2022-12-13T16:18:56.818Z,23.10
2022-12-13T16:21:25.480Z,23.70
2022-12-13T16:23:53.377Z,23.45
2022-12-13T16:26:31.133Z,23.23
2022-12-13T16:28:59.474Z,22.80
2022-12-13T16:31:35.463Z,21.00
2022-12-13T16:34:05.074Z,24.17
2022-12-13T16:36:33.050Z,22.23
2022-12-13T16:39:00.508Z,22.10
2022-12-13T16:41:28.271Z,21.52
2022-12-13T16:44:01.611Z,25.50
2022-12-13T16:47:13.270Z,16.02
2022-12-13T16:49:35.163Z,20.15
2022-12-13T16:52:04.993Z,20.80
2022-12-13T16:54:32.473Z,18.85
2022-12-13T16:57:00.021Z,16.77
2022-12-13T16:59:28.213Z,10.55
2022-12-13T17:01:55.844Z,22.30
2022-12-13T17:04:27.157Z,19.85
2022-12-13T17:06:55.567Z,18.45
2022-12-13T17:09:24.760Z,22.23
2022-12-13T17:11:52.597Z,21.08
2022-12-13T17:14:20.272Z,20.50
2022-12-13T17:16:47.867Z,22.13
2022-12-13T17:19:17.459Z,20.77
2022-12-13T17:21:45.103Z,18.00
2022-12-13T17:24:12.968Z,18.63
2022-12-13T17:26:41.616Z,13.15
2022-12-13T17:29:22.559Z,22.08
2022-12-13T17:31:50.117Z,12.82
2022-12-13T17:34:17.679Z,19.30
2022-12-13T17:36:45.308Z,11.45
2022-12-13T17:39:13.772Z,17.13
2022-12-13T17:41:41.862Z,21.02
2022-12-13T17:44:09.666Z,20.20
2022-12-13T17:46:37.300Z,12.38
2022-12-13T17:49:04.993Z,17.98
2022-12-13T17:51:32.605Z,18.15
2022-12-13T17:54:00.127Z,19.40
2022-12-13T17:56:27.715Z,19.13
2022-12-13T17:58:55.232Z,19.23
2022-12-13T18:01:25.301Z,18.38
2022-12-13T18:03:55.532Z,16.63
2022-12-13T18:06:24.600Z,19.48
2022-12-13T18:08:52.237Z,19.27
2022-12-13T18:11:36.160Z,20.45
2022-12-13T18:14:05.585Z,17.92
2022-12-13T18:16:37.468Z,21.20
2022-12-13T18:19:08.297Z,17.85
2022-12-13T18:21:36.889Z,21.77
2022-12-13T18:24:05.287Z,19.73
2022-12-13T18:26:32.853Z,18.67
2022-12-13T18:29:00.468Z,19.40
2022-12-13T18:31:28.246Z,16.38
2022-12-13T18:33:56.035Z,20.85
2022-12-13T18:36:25.357Z,16.90
2022-12-13T18:38:53.076Z,20.55
2022-12-13T18:41:28.196Z,16.92
2022-12-13T18:44:07.907Z,20.40
2022-12-13T18:46:42.235Z,18.20
2022-12-13T18:49:13.000Z,18.38
2022-12-13T18:51:40.722Z,23.70
2022-12-13T18:54:08.340Z,15.57
2022-12-13T18:56:35.803Z,18.92
2022-12-13T18:59:03.269Z,18.35
2022-12-13T19:01:31.217Z,22.08
2022-12-13T19:03:59.160Z,14.35
2022-12-13T19:06:28.459Z,17.50
2022-12-13T19:08:57.838Z,15.57
2022-12-13T19:11:27.200Z,18.90
2022-12-13T19:13:55.585Z,19.25
2022-12-13T19:16:24.380Z,18.67
2022-12-13T19:18:52.164Z,16.45
2022-12-13T19:21:21.875Z,19.88
2022-12-13T19:23:56.393Z,18.92
2022-12-13T19:26:25.861Z,19.02
2022-12-13T19:28:53.388Z,21.73
2022-12-13T19:31:25.499Z,17.05
2022-12-13T19:33:57.348Z,18.23
2022-12-13T19:36:25.128Z,21.48
2022-12-13T19:38:52.843Z,18.60
2022-12-13T19:41:20.504Z,20.27
2022-12-13T19:43:53.095Z,16.02
2022-12-13T19:46:21.353Z,18.88
2022-12-13T19:48:49.143Z,19.50
2022-12-13T19:51:17.814Z,17.50
2022-12-13T19:53:45.437Z,19.52
2022-12-13T19:56:17.517Z,18.38
2022-12-13T19:58:46.144Z,17.00
2022-12-13T20:01:14.075Z,17.83
2022-12-13T20:03:43.572Z,18.70
2022-12-13T20:06:13.345Z,15.43
2022-12-13T20:08:41.699Z,18.17
2022-12-13T20:11:13.020Z,17.75
2022-12-13T20:13:40.926Z,20.38
2022-12-13T20:16:09.258Z,18.60
2022-12-13T20:18:36.777Z,15.45
2022-12-13T20:21:12.671Z,15.65
2022-12-13T20:23:48.659Z,18.95
2022-12-13T20:26:23.608Z,17.48
2022-12-13T20:28:52.095Z,18.17
2022-12-13T20:31:22.745Z,18.35
2022-12-13T20:33:55.772Z,16.65
2022-12-13T20:36:27.495Z,17.52
2022-12-13T20:38:57.527Z,13.35
2022-12-13T20:41:29.600Z,15.52
2022-12-13T20:43:59.505Z,16.35
2022-12-13T20:46:28.635Z,12.02
2022-12-13T20:48:57.785Z,11.20
2022-12-13T20:51:28.448Z,13.88
2022-12-13T20:53:57.161Z,11.45
2022-12-13T20:56:26.924Z,5.53
2022-12-13T20:58:54.612Z,15.18
2022-12-13T21:01:24.796Z,13.50
2022-12-13T21:03:56.366Z,15.93
2022-12-13T21:06:24.269Z,16.48
2022-12-13T21:08:55.244Z,13.48
2022-12-13T21:11:26.994Z,15.38
2022-12-13T21:14:03.794Z,11.85
2022-12-13T21:16:39.471Z,16.52
2022-12-13T21:19:08.508Z,14.93
2022-12-13T21:21:36.180Z,15.45
2022-12-13T21:24:04.256Z,13.95
2022-12-13T21:26:35.645Z,13.55
2022-12-13T21:29:06.347Z,13.27
2022-12-13T21:31:34.696Z,10.48
2022-12-13T21:34:03.548Z,15.60
2022-12-13T21:36:39.299Z,10.38
2022-12-13T21:39:09.342Z,15.63
2022-12-13T21:41:36.956Z,10.55
2022-12-13T21:44:04.560Z,13.98
2022-12-13T21:47:11.511Z,12.82
2022-12-13T21:49:20.098Z,10.88
2022-12-13T21:51:48.552Z,13.63
2022-12-13T21:54:16.924Z,11.60
2022-12-13T21:57:01.713Z,13.40
2022-12-13T21:59:29.397Z,12.98
2022-12-13T22:02:14.559Z,12.35
2022-12-13T22:04:46.641Z,11.65
2022-12-13T22:07:24.894Z,12.40
2022-12-13T22:09:53.685Z,12.50
2022-12-13T22:12:39.497Z,12.43
2022-12-13T22:15:09.547Z,11.80
2022-12-13T22:17:38.502Z,7.18
2022-12-13T22:20:14.127Z,11.02
2022-12-13T22:22:44.104Z,9.63
2022-12-13T22:25:11.832Z,10.80
2022-12-13T22:27:39.343Z,11.70
2022-12-13T22:30:07.511Z,12.85
2022-12-13T22:32:35.020Z,10.68
2022-12-13T22:35:02.581Z,12.45
2022-12-13T22:37:30.374Z,13.73
2022-12-13T22:39:57.987Z,12.30
2022-12-13T22:42:25.486Z,12.57
2022-12-13T22:44:52.986Z,10.98
2022-12-13T22:47:20.607Z,12.30
2022-12-13T22:49:48.734Z,14.32
2022-12-13T22:52:17.049Z,9.45
2022-12-13T22:54:44.582Z,9.88
2022-12-13T22:57:12.102Z,11.98
2022-12-13T22:59:39.564Z,12.65
2022-12-13T23:02:07.832Z,10.98
2022-12-13T23:04:35.570Z,11.50
2022-12-13T23:07:03.103Z,11.63
2022-12-13T23:09:30.619Z,13.38
2022-12-13T23:12:16.042Z,12.85
2022-12-13T23:14:43.561Z,12.88
2022-12-13T23:17:11.053Z,12.88
2022-12-13T23:19:49.075Z,12.50
2022-12-13T23:22:20.798Z,13.50
2022-12-13T23:24:48.384Z,11.32
2022-12-13T23:27:15.943Z,9.43
2022-12-13T23:29:43.693Z,12.00
2022-12-13T23:32:11.289Z,12.68
2022-12-13T23:34:38.818Z,5.47
2022-12-13T23:37:06.344Z,13.88
2022-12-13T23:39:33.871Z,10.77
2022-12-13T23:42:01.405Z,12.15
2022-12-13T23:44:28.896Z,13.88
2022-12-13T23:46:56.388Z,13.65
2022-12-13T23:49:23.942Z,11.82
2022-12-13T23:51:51.515Z,10.38
2022-12-13T23:54:20.117Z,11.98
2022-12-13T23:56:48.596Z,10.27
2022-12-13T23:59:16.140Z,12.35
